Sun City, California
Current Conditions -  °F | °C
As of 9:35 PM on Thursday 30 Oct 2014 (Local Time) from KF70 Reporting Station
Clear Clear  
Wind Chill: 63°   Ceiling: Unl
Heat Index: 63°   Visibility: 10mi
Dew Point: 57°   Wind: 6mph
Humidity: 82%   Direction: 190°S
Pressure: 30"   Gusts: NA
Location:  33.71°N, 117.19°W
Report Text: KF70 310435Z AUTO 19005KT 10SM CLR 17/14 A3000 RMK AO1
Loading
Personal Weather Stations






























Interactive Weather Map
Tropical Storm Tracking
New forecast layout! Learn more

10-Day Weather Forecast

Advertisements
Track Severe Weather on mobile